createdAt,value
2022-11-23T00:01:21.111Z,5.15
2022-11-23T00:03:50.999Z,4.50
2022-11-23T00:06:21.939Z,3.75
2022-11-23T00:08:51.143Z,4.47
2022-11-23T00:11:21.214Z,4.55
2022-11-23T00:13:49.805Z,4.25
2022-11-23T00:16:20.129Z,4.35
2022-11-23T00:18:48.949Z,3.75
2022-11-23T00:21:18.879Z,4.65
2022-11-23T00:23:48.803Z,4.25
2022-11-23T00:26:18.734Z,3.10
2022-11-23T00:28:47.532Z,6.35
2022-11-23T00:31:17.506Z,4.18
2022-11-23T00:33:50.276Z,4.40
2022-11-23T00:36:19.326Z,4.78
2022-11-23T00:38:49.960Z,4.00
2022-11-23T00:41:21.401Z,6.00
2022-11-23T00:43:50.071Z,3.92
2022-11-23T00:46:20.838Z,3.30
2022-11-23T00:48:50.493Z,4.78
2022-11-23T00:51:21.392Z,4.45
2022-11-23T00:53:53.028Z,3.60
2022-11-23T00:56:21.879Z,4.47
2022-11-23T00:58:51.216Z,3.17
2022-11-23T01:01:21.157Z,4.32
2022-11-23T01:03:52.513Z,3.15
2022-11-23T01:06:23.018Z,2.80
2022-11-23T01:08:55.800Z,2.53
2022-11-23T01:11:25.620Z,2.92
2022-11-23T01:13:55.506Z,3.45
2022-11-23T01:16:26.893Z,2.33
2022-11-23T01:18:55.291Z,2.47
2022-11-23T01:21:25.966Z,2.15
2022-11-23T01:23:55.865Z,3.33
2022-11-23T01:26:24.837Z,3.10
2022-11-23T01:28:53.446Z,2.97
2022-11-23T01:31:26.582Z,1.85
2022-11-23T01:33:56.513Z,2.25
2022-11-23T01:36:26.760Z,2.85
2022-11-23T01:38:57.306Z,3.80
2022-11-23T01:41:29.507Z,4.28
2022-11-23T01:43:58.564Z,2.95
2022-11-23T01:46:27.168Z,4.13
2022-11-23T01:48:58.599Z,4.22
2022-11-23T01:51:30.060Z,1.83
2022-11-23T01:54:03.250Z,2.55
2022-11-23T01:56:38.184Z,2.28
2022-11-23T01:59:14.108Z,2.45
2022-11-23T02:01:42.831Z,3.53
2022-11-23T02:04:15.741Z,2.70
2022-11-23T02:06:49.009Z,3.13
2022-11-23T02:09:19.575Z,3.65
2022-11-23T02:11:48.023Z,2.15
2022-11-23T02:14:23.085Z,3.88
2022-11-23T02:16:51.883Z,1.85
2022-11-23T02:19:34.791Z,2.33
2022-11-23T02:22:08.943Z,3.03
2022-11-23T02:24:46.280Z,2.53
2022-11-23T02:27:17.486Z,2.53
2022-11-23T02:29:46.996Z,3.47
2022-11-23T02:32:20.714Z,2.63
2022-11-23T02:34:49.081Z,5.33
2022-11-23T02:37:18.674Z,3.75
2022-11-23T02:39:50.424Z,2.10
2022-11-23T02:42:20.356Z,2.03
2022-11-23T02:44:59.127Z,2.88
2022-11-23T02:47:27.583Z,4.00
2022-11-23T02:49:56.041Z,3.03
2022-11-23T02:52:24.471Z,2.22
2022-11-23T02:54:52.820Z,2.13
2022-11-23T02:57:22.518Z,2.38
2022-11-23T02:59:51.234Z,2.03
2022-11-23T03:02:19.612Z,1.95
2022-11-23T03:04:48.597Z,2.25
2022-11-23T03:07:20.127Z,1.88
2022-11-23T03:09:50.441Z,3.13
2022-11-23T03:12:21.770Z,3.15
2022-11-23T03:14:50.168Z,2.97
2022-11-23T03:17:19.609Z,3.00
2022-11-23T03:19:47.930Z,2.85
2022-11-23T03:22:16.525Z,3.33
2022-11-23T03:24:45.248Z,4.10
2022-11-23T03:27:17.401Z,3.45
2022-11-23T03:29:48.470Z,3.72
2022-11-23T03:32:21.063Z,3.78
2022-11-23T03:34:52.731Z,2.00
2022-11-23T03:37:22.805Z,2.30
2022-11-23T03:39:51.241Z,2.88
2022-11-23T03:42:57.911Z,4.00
2022-11-23T03:45:27.866Z,3.78
2022-11-23T03:47:56.238Z,2.25
2022-11-23T03:50:24.709Z,3.25
2022-11-23T03:52:53.101Z,1.75
2022-11-23T03:55:21.533Z,3.80
2022-11-23T03:57:50.262Z,3.72
2022-11-23T04:00:18.960Z,3.05
2022-11-23T04:02:49.274Z,4.13
2022-11-23T04:05:52.487Z,2.75
2022-11-23T04:08:43.431Z,3.70
2022-11-23T04:11:18.002Z,2.95
2022-11-23T04:13:49.610Z,2.03
2022-11-23T04:16:19.523Z,3.05
2022-11-23T04:18:49.259Z,3.85
2022-11-23T04:21:18.361Z,3.08
2022-11-23T04:23:46.955Z,4.60
2022-11-23T04:26:16.796Z,4.93
2022-11-23T04:28:47.644Z,5.03
2022-11-23T04:31:16.729Z,4.72
2022-11-23T04:33:55.835Z,7.45
2022-11-23T04:36:26.896Z,7.13
2022-11-23T04:38:55.813Z,4.30
2022-11-23T04:41:34.621Z,2.97
2022-11-23T04:44:04.041Z,3.40
2022-11-23T04:46:32.777Z,3.92
2022-11-23T04:49:03.159Z,4.95
2022-11-23T04:51:32.055Z,4.45
2022-11-23T04:54:01.413Z,3.08
2022-11-23T04:56:32.979Z,4.43
2022-11-23T04:59:01.338Z,3.38
2022-11-23T05:01:29.921Z,4.18
2022-11-23T05:04:38.204Z,4.07
2022-11-23T05:07:07.671Z,4.93
2022-11-23T05:09:37.507Z,3.75
2022-11-23T05:12:14.289Z,5.70
2022-11-23T05:14:43.347Z,2.90
2022-11-23T05:17:13.553Z,4.93
2022-11-23T05:19:45.404Z,5.72
2022-11-23T05:22:14.578Z,3.08
2022-11-23T05:24:44.318Z,7.20
2022-11-23T05:27:17.228Z,4.60
2022-11-23T05:29:46.643Z,3.42
2022-11-23T05:32:15.815Z,3.40
2022-11-23T05:34:45.853Z,4.50
2022-11-23T05:37:17.022Z,4.78
2022-11-23T05:39:57.858Z,6.50
2022-11-23T05:42:26.752Z,5.88
2022-11-23T05:44:58.209Z,5.30
2022-11-23T05:47:35.491Z,4.93
2022-11-23T05:50:09.792Z,4.35
2022-11-23T05:52:42.389Z,3.78
2022-11-23T05:55:10.797Z,3.95
2022-11-23T05:57:39.638Z,3.72
2022-11-23T06:00:10.546Z,5.22
2022-11-23T06:02:47.373Z,5.68
2022-11-23T06:05:17.447Z,4.22
2022-11-23T06:07:53.951Z,2.88
2022-11-23T06:10:27.754Z,2.30
2022-11-23T06:13:03.335Z,5.70
2022-11-23T06:15:32.112Z,3.85
2022-11-23T06:18:01.843Z,5.22
2022-11-23T06:20:39.806Z,5.78
2022-11-23T06:23:08.118Z,5.10
2022-11-23T06:25:38.417Z,2.67
2022-11-23T06:28:12.441Z,5.78
2022-11-23T06:33:15.755Z,2.83
2022-11-23T06:35:55.750Z,3.30
2022-11-23T06:38:26.359Z,3.97
2022-11-23T06:41:05.421Z,2.45
2022-11-23T06:43:33.976Z,3.50
2022-11-23T06:46:06.114Z,5.30
2022-11-23T06:48:36.269Z,4.22
2022-11-23T06:51:07.329Z,4.22
2022-11-23T06:53:37.877Z,2.90
2022-11-23T06:56:09.593Z,3.35
2022-11-23T06:58:38.138Z,4.15
2022-11-23T07:01:11.934Z,3.63
2022-11-23T07:06:25.511Z,3.33
2022-11-23T07:08:56.992Z,4.63
2022-11-23T07:11:45.503Z,3.08
2022-11-23T07:14:13.994Z,4.90
2022-11-23T07:16:46.518Z,4.35
2022-11-23T07:19:15.696Z,4.35
2022-11-23T07:21:45.955Z,4.25
2022-11-23T07:24:14.331Z,4.80
2022-11-23T07:26:42.851Z,4.28
2022-11-23T07:29:11.846Z,4.72
2022-11-23T07:31:40.529Z,2.97
2022-11-23T07:34:10.990Z,3.60
2022-11-23T07:36:39.586Z,5.05
2022-11-23T07:39:09.397Z,2.75
2022-11-23T07:41:38.265Z,2.67
2022-11-23T07:44:29.164Z,3.33
2022-11-23T07:46:58.092Z,3.75
2022-11-23T07:49:26.397Z,3.80
2022-11-23T07:51:56.140Z,4.40
2022-11-23T07:54:25.834Z,2.72
2022-11-23T07:56:54.110Z,3.05
2022-11-23T07:59:22.427Z,4.50
2022-11-23T08:01:55.631Z,3.70
2022-11-23T08:04:27.101Z,5.32
2022-11-23T08:06:55.448Z,5.03
2022-11-23T08:09:25.144Z,3.00
2022-11-23T08:11:53.437Z,4.03
2022-11-23T08:14:21.853Z,4.43
2022-11-23T08:16:50.831Z,4.38
2022-11-23T08:19:19.447Z,5.50
2022-11-23T08:21:47.733Z,6.72
2022-11-23T08:24:16.070Z,5.60
2022-11-23T08:26:46.101Z,3.35
2022-11-23T08:29:14.414Z,7.35
2022-11-23T08:31:43.100Z,6.18
2022-11-23T08:34:11.452Z,5.47
2022-11-23T08:36:39.794Z,4.95
2022-11-23T08:39:08.728Z,3.90
2022-11-23T08:41:36.970Z,5.47
2022-11-23T08:44:08.384Z,5.18
2022-11-23T08:46:36.856Z,4.70
2022-11-23T08:49:05.877Z,4.28
2022-11-23T08:51:34.957Z,7.85
2022-11-23T08:54:03.297Z,7.20
2022-11-23T08:56:31.616Z,5.93
2022-11-23T08:58:59.966Z,5.15
2022-11-23T09:01:29.731Z,4.78
2022-11-23T09:03:58.247Z,5.40
2022-11-23T09:06:29.136Z,7.28
2022-11-23T09:08:57.658Z,5.80
2022-11-23T09:11:26.512Z,5.28
2022-11-23T09:13:55.145Z,4.82
2022-11-23T09:16:23.446Z,7.68
2022-11-23T09:18:56.663Z,5.22
2022-11-23T09:21:29.330Z,9.05
2022-11-23T09:23:57.792Z,5.45
2022-11-23T09:26:26.884Z,5.10
2022-11-23T09:28:55.154Z,6.10
2022-11-23T09:31:23.851Z,6.70
2022-11-23T09:33:54.718Z,5.35
2022-11-23T09:36:23.660Z,6.70
2022-11-23T09:38:56.523Z,7.03
2022-11-23T09:41:51.517Z,7.20
2022-11-23T09:44:26.380Z,6.40
2022-11-23T09:47:08.413Z,5.95
2022-11-23T09:49:46.536Z,6.60
2022-11-23T09:52:19.226Z,5.90
2022-11-23T09:54:49.631Z,7.30
2022-11-23T09:57:22.716Z,6.35
2022-11-23T09:59:57.158Z,5.47
2022-11-23T10:02:28.770Z,9.32
2022-11-23T10:05:00.934Z,6.15
2022-11-23T10:07:48.225Z,4.90
2022-11-23T10:10:32.410Z,8.27
2022-11-23T10:13:14.872Z,6.63
2022-11-23T10:16:00.669Z,5.90
2022-11-23T10:18:37.361Z,7.65
2022-11-23T10:21:18.338Z,6.82
2022-11-23T10:23:55.306Z,6.45
2022-11-23T10:26:29.857Z,8.30
2022-11-23T10:29:07.720Z,6.57
2022-11-23T10:31:36.781Z,5.00
2022-11-23T10:34:11.854Z,6.63
2022-11-23T10:36:42.173Z,8.02
2022-11-23T10:39:21.056Z,6.80
2022-11-23T10:41:50.732Z,6.55
2022-11-23T10:44:32.749Z,8.63
2022-11-23T10:47:01.560Z,5.00
2022-11-23T10:49:32.981Z,6.10
2022-11-23T10:52:05.488Z,4.22
2022-11-23T10:54:36.947Z,6.38
2022-11-23T10:57:23.411Z,5.13
2022-11-23T10:59:59.015Z,5.60
2022-11-23T11:02:27.900Z,5.05
2022-11-23T11:05:15.476Z,4.78
2022-11-23T11:07:45.228Z,4.07
2022-11-23T11:10:34.971Z,5.30
2022-11-23T11:13:03.573Z,6.30
2022-11-23T11:15:31.881Z,5.57
2022-11-23T11:18:00.615Z,4.50
2022-11-23T11:20:34.454Z,4.90
2022-11-23T11:23:17.323Z,7.88
2022-11-23T11:25:46.364Z,6.65
2022-11-23T11:28:25.603Z,6.75
2022-11-23T11:31:05.154Z,4.95
2022-11-23T11:33:42.099Z,6.40
2022-11-23T11:36:17.003Z,4.85
2022-11-23T11:39:15.008Z,4.43
2022-11-23T11:41:41.817Z,5.00
2022-11-23T11:44:18.367Z,2.65
2022-11-23T11:46:50.992Z,4.45
2022-11-23T11:49:25.371Z,7.82
2022-11-23T11:51:59.376Z,5.00
2022-11-23T11:54:36.090Z,8.05
2022-11-23T11:57:08.370Z,4.70
2022-11-23T11:59:42.844Z,3.35
2022-11-23T12:04:55.045Z,5.60
2022-11-23T12:07:28.534Z,4.80
2022-11-23T12:10:05.836Z,5.50
2022-11-23T12:12:36.833Z,5.90
2022-11-23T12:15:20.499Z,3.78
2022-11-23T12:18:31.543Z,6.65
2022-11-23T12:21:04.798Z,3.92
2022-11-23T12:23:49.032Z,3.47
2022-11-23T12:26:27.581Z,2.60
2022-11-23T12:29:17.071Z,4.78
2022-11-23T12:31:50.524Z,3.13
2022-11-23T12:34:37.899Z,3.70
2022-11-23T12:37:30.642Z,6.70
2022-11-23T12:40:15.177Z,5.30
2022-11-23T12:42:48.263Z,4.57
2022-11-23T12:45:23.656Z,4.50
2022-11-23T12:48:01.075Z,5.75
2022-11-23T12:50:36.370Z,4.22
2022-11-23T12:53:20.833Z,2.83
2022-11-23T12:55:54.295Z,7.28
2022-11-23T12:58:27.061Z,5.47
2022-11-23T13:01:00.785Z,3.50
2022-11-23T13:04:01.009Z,7.47
2022-11-23T13:10:13.986Z,5.00
2022-11-23T13:13:01.685Z,6.50
2022-11-23T13:15:48.092Z,5.00
2022-11-23T13:18:28.383Z,7.38
2022-11-23T13:21:09.704Z,3.95
2022-11-23T13:23:39.522Z,4.70
2022-11-23T13:26:15.726Z,4.45
2022-11-23T13:28:44.958Z,3.55
2022-11-23T13:31:24.721Z,3.28
2022-11-23T13:33:55.774Z,3.42
2022-11-23T13:37:11.243Z,4.93
2022-11-23T13:40:06.475Z,4.97
2022-11-23T13:42:36.060Z,3.30
2022-11-23T13:45:25.509Z,2.88
2022-11-23T13:48:41.223Z,3.58
2022-11-23T13:51:05.856Z,2.95
2022-11-23T13:53:36.615Z,4.65
2022-11-23T13:56:24.028Z,6.10
2022-11-23T13:58:55.313Z,5.90
2022-11-23T14:02:01.508Z,3.55
2022-11-23T14:04:33.021Z,5.40
2022-11-23T14:07:06.680Z,2.92
2022-11-23T14:09:50.411Z,4.97
2022-11-23T14:12:26.797Z,5.10
2022-11-23T14:14:59.562Z,4.80
2022-11-23T14:17:55.876Z,4.50
2022-11-23T14:20:53.529Z,4.60
2022-11-23T14:23:51.075Z,5.30
2022-11-23T14:26:34.799Z,3.03
2022-11-23T14:29:41.408Z,4.05
2022-11-23T14:32:22.673Z,4.43
2022-11-23T14:34:58.408Z,4.85
2022-11-23T14:37:34.304Z,3.95
2022-11-23T14:40:11.664Z,5.00
2022-11-23T14:42:45.062Z,3.72
2022-11-23T14:45:15.462Z,4.38
2022-11-23T14:47:44.082Z,3.33
2022-11-23T14:50:23.234Z,3.95
2022-11-23T14:52:54.210Z,3.97
2022-11-23T14:55:25.490Z,5.45
2022-11-23T14:57:59.306Z,4.13
2022-11-23T15:00:32.659Z,4.70
2022-11-23T15:03:34.486Z,3.85
2022-11-23T15:06:02.707Z,3.45
2022-11-23T15:08:41.456Z,3.33
2022-11-23T15:11:15.252Z,4.30
2022-11-23T15:13:45.324Z,4.95
2022-11-23T15:16:15.944Z,4.75
2022-11-23T15:18:45.038Z,3.05
2022-11-23T15:21:26.630Z,3.92
2022-11-23T15:23:59.996Z,3.58
2022-11-23T15:29:36.803Z,4.88
2022-11-23T15:32:30.621Z,3.13
2022-11-23T15:37:32.405Z,3.63
2022-11-23T15:40:02.364Z,3.60
2022-11-23T15:42:30.962Z,3.60
2022-11-23T15:44:59.324Z,3.90
2022-11-23T15:47:30.912Z,3.17
2022-11-23T15:50:02.744Z,2.78
2022-11-23T15:52:35.800Z,3.95
2022-11-23T15:55:10.469Z,3.53
2022-11-23T15:57:40.472Z,4.38
2022-11-23T16:00:21.847Z,4.40
2022-11-23T16:02:50.708Z,4.78
2022-11-23T16:05:22.188Z,3.50
2022-11-23T16:07:52.707Z,5.10
2022-11-23T16:10:25.842Z,4.18
2022-11-23T16:12:55.706Z,4.30
2022-11-23T16:15:41.852Z,3.30
2022-11-23T16:18:22.459Z,5.22
2022-11-23T16:20:53.603Z,4.40
2022-11-23T16:23:24.575Z,3.17
2022-11-23T16:26:02.674Z,3.22
2022-11-23T16:28:33.042Z,2.45
2022-11-23T16:31:01.987Z,4.03
2022-11-23T16:33:31.223Z,4.95
2022-11-23T16:35:59.564Z,4.13
2022-11-23T16:38:27.924Z,5.07
2022-11-23T16:40:56.410Z,4.85
2022-11-23T16:43:26.186Z,4.35
2022-11-23T16:45:55.537Z,3.80
2022-11-23T16:48:41.200Z,5.97
2022-11-23T16:51:14.100Z,5.35
2022-11-23T16:54:11.888Z,3.65
2022-11-23T16:56:32.070Z,4.30
2022-11-23T16:59:01.929Z,4.25
2022-11-23T17:01:32.454Z,4.28
2022-11-23T17:04:01.049Z,2.72
2022-11-23T17:06:29.496Z,3.40
2022-11-23T17:09:06.156Z,4.53
2022-11-23T17:11:38.714Z,3.83
2022-11-23T17:14:18.162Z,3.97
2022-11-23T17:16:48.233Z,3.53
2022-11-23T17:19:17.764Z,5.10
2022-11-23T17:21:47.272Z,4.22
2022-11-23T17:24:15.951Z,4.68
2022-11-23T17:26:46.425Z,3.40
2022-11-23T17:29:19.475Z,4.45
2022-11-23T17:31:48.457Z,7.07
2022-11-23T17:34:17.231Z,4.38
2022-11-23T17:36:47.045Z,4.55
2022-11-23T17:39:18.963Z,5.00
2022-11-23T17:41:48.009Z,4.95
2022-11-23T17:44:18.426Z,4.43
2022-11-23T17:46:47.949Z,6.05
2022-11-23T17:49:19.927Z,5.15
2022-11-23T17:51:48.203Z,4.72
2022-11-23T17:54:16.489Z,4.30
2022-11-23T17:56:44.801Z,4.75
2022-11-23T17:59:13.341Z,3.95
2022-11-23T18:01:42.981Z,3.42
2022-11-23T18:04:11.640Z,5.90
2022-11-23T18:06:40.090Z,4.53
2022-11-23T18:09:11.829Z,7.72
2022-11-23T18:11:40.189Z,4.85
2022-11-23T18:14:09.019Z,4.35
2022-11-23T18:16:37.435Z,6.30
2022-11-23T18:19:07.175Z,4.03
2022-11-23T18:21:35.672Z,5.55
2022-11-23T18:24:04.827Z,4.88
2022-11-23T18:26:33.442Z,3.83
2022-11-23T18:29:02.045Z,3.05
2022-11-23T18:31:30.428Z,3.30
2022-11-23T18:33:58.990Z,3.03
2022-11-23T18:36:29.012Z,2.60
2022-11-23T18:38:57.937Z,3.25
2022-11-23T18:41:26.480Z,3.25
2022-11-23T18:43:54.811Z,3.10
2022-11-23T18:46:23.299Z,3.22
2022-11-23T18:48:52.098Z,2.70
2022-11-23T18:51:20.382Z,4.30
2022-11-23T18:53:51.371Z,3.13
2022-11-23T18:56:20.423Z,2.65
2022-11-23T18:58:48.920Z,6.95
2022-11-23T19:01:19.175Z,6.63
2022-11-23T19:03:49.370Z,6.88
2022-11-23T19:06:19.652Z,5.00
2022-11-23T19:08:53.406Z,5.95
2022-11-23T19:11:23.452Z,7.13
2022-11-23T19:13:54.157Z,6.65
2022-11-23T19:16:24.419Z,8.25
2022-11-23T19:18:56.388Z,7.57
2022-11-23T19:21:26.426Z,8.55
2022-11-23T19:23:57.659Z,8.52
2022-11-23T19:26:27.163Z,9.48
2022-11-23T19:28:55.869Z,10.02
2022-11-23T19:31:26.446Z,9.75
2022-11-23T19:33:57.772Z,7.43
2022-11-23T19:36:26.461Z,9.07
2022-11-23T19:38:56.624Z,8.82
2022-11-23T19:41:29.874Z,6.72
2022-11-23T19:44:00.313Z,8.98
2022-11-23T19:46:29.830Z,7.50
2022-11-23T19:48:58.834Z,6.90
2022-11-23T19:51:27.934Z,6.97
2022-11-23T19:53:59.972Z,5.85
2022-11-23T19:56:29.786Z,6.60
2022-11-23T19:58:59.621Z,8.10
2022-11-23T20:01:31.685Z,6.80
2022-11-23T20:04:08.613Z,6.05
2022-11-23T20:06:39.394Z,7.43
2022-11-23T20:09:11.257Z,5.63
2022-11-23T20:11:41.027Z,8.68
2022-11-23T20:14:12.187Z,8.80
2022-11-23T20:16:41.101Z,6.80
2022-11-23T20:19:10.494Z,6.72
2022-11-23T20:21:39.055Z,5.63
2022-11-23T20:24:12.062Z,6.88
2022-11-23T20:26:41.383Z,8.38
2022-11-23T20:29:10.340Z,6.90
2022-11-23T20:31:39.410Z,8.68
2022-11-23T20:34:10.095Z,7.43
2022-11-23T20:36:39.747Z,5.10
2022-11-23T20:39:11.849Z,5.93
2022-11-23T20:41:40.680Z,9.65
2022-11-23T20:44:12.581Z,7.07
2022-11-23T20:49:30.955Z,4.97
2022-11-23T20:51:59.810Z,6.63
2022-11-23T20:54:29.898Z,6.85
2022-11-23T20:57:00.190Z,6.40
2022-11-23T20:59:29.463Z,6.18
2022-11-23T21:01:58.095Z,6.53
2022-11-23T21:04:27.225Z,5.40
2022-11-23T21:06:55.637Z,4.88
2022-11-23T21:09:24.101Z,5.32
2022-11-23T21:12:11.749Z,5.95
2022-11-23T21:14:40.368Z,6.78
2022-11-23T21:17:09.067Z,4.70
2022-11-23T21:19:39.846Z,5.05
2022-11-23T21:22:10.526Z,5.10
2022-11-23T21:24:39.247Z,6.85
2022-11-23T21:27:13.600Z,4.88
2022-11-23T21:29:44.003Z,4.72
2022-11-23T21:32:14.624Z,5.57
2022-11-23T21:34:43.386Z,5.57
2022-11-23T21:37:12.514Z,4.15
2022-11-23T21:39:41.259Z,4.72
2022-11-23T21:42:11.128Z,4.57
2022-11-23T21:44:39.659Z,4.38
2022-11-23T21:47:08.287Z,4.00
2022-11-23T21:49:36.853Z,5.18
2022-11-23T21:52:05.446Z,7.90
2022-11-23T21:54:33.996Z,5.05
2022-11-23T21:57:02.560Z,5.55
2022-11-23T21:59:32.633Z,4.45
2022-11-23T22:02:01.303Z,6.32
2022-11-23T22:04:29.998Z,8.00
2022-11-23T22:06:58.476Z,5.80
2022-11-23T22:09:27.097Z,5.63
2022-11-23T22:11:55.491Z,4.63
2022-11-23T22:14:23.950Z,4.93
2022-11-23T22:16:56.554Z,6.38
2022-11-23T22:19:24.881Z,6.00
2022-11-23T22:21:53.396Z,5.82
2022-11-23T22:24:22.533Z,8.57
2022-11-23T22:26:51.017Z,7.43
2022-11-23T22:29:19.394Z,6.15
2022-11-23T22:31:47.802Z,8.00
2022-11-23T22:34:17.782Z,8.70
2022-11-23T22:36:46.090Z,6.90
2022-11-23T22:39:14.370Z,5.72
2022-11-23T22:41:42.794Z,4.38
2022-11-23T22:44:11.631Z,7.28
2022-11-23T22:46:40.645Z,5.82
2022-11-23T22:49:08.982Z,8.07
2022-11-23T22:51:38.798Z,6.07
2022-11-23T22:54:07.261Z,6.18
2022-11-23T22:56:35.528Z,7.05
2022-11-23T22:59:04.181Z,6.20
2022-11-23T23:01:32.715Z,7.32
2022-11-23T23:04:02.701Z,6.90
2022-11-23T23:06:33.952Z,7.22
2022-11-23T23:09:05.560Z,7.15
2022-11-23T23:11:35.268Z,8.73
2022-11-23T23:14:03.669Z,7.85
2022-11-23T23:16:34.897Z,9.13
2022-11-23T23:19:03.482Z,5.15
2022-11-23T23:21:31.939Z,6.40
2022-11-23T23:24:02.095Z,5.90
2022-11-23T23:26:31.639Z,5.75
2022-11-23T23:29:01.464Z,6.00
2022-11-23T23:31:30.605Z,6.07
2022-11-23T23:34:00.509Z,5.60
2022-11-23T23:36:29.459Z,6.80
2022-11-23T23:38:58.440Z,6.63
2022-11-23T23:41:26.892Z,9.10
2022-11-23T23:43:56.651Z,7.57
2022-11-23T23:46:25.361Z,5.88
2022-11-23T23:48:53.728Z,7.70
2022-11-23T23:51:23.841Z,4.90
2022-11-23T23:53:52.741Z,6.57
2022-11-23T23:56:22.697Z,5.07
2022-11-23T23:58:51.376Z,6.90
